createdAt,value
2022-10-24T04:16:29.911Z,3.40
2022-10-24T04:19:07.635Z,2.60
2022-10-24T04:21:34.409Z,2.92
2022-10-24T04:24:00.851Z,2.88
2022-10-24T04:26:27.368Z,2.50
2022-10-24T04:28:55.891Z,3.33
2022-10-24T04:31:23.680Z,3.30
2022-10-24T04:33:50.665Z,2.45
2022-10-24T04:36:17.439Z,2.45
2022-10-24T04:38:43.917Z,3.25
2022-10-24T04:41:12.190Z,3.03
2022-10-24T04:43:39.475Z,2.85
2022-10-24T04:46:08.377Z,3.55
2022-10-24T04:48:46.422Z,2.80
2022-10-24T04:51:12.941Z,3.28
2022-10-24T04:53:39.473Z,3.08
2022-10-24T04:56:08.125Z,3.70
2022-10-24T04:58:34.602Z,2.83
2022-10-24T05:01:01.097Z,3.03
2022-10-24T05:03:27.602Z,3.13
2022-10-24T05:05:54.207Z,3.38
2022-10-24T05:08:20.761Z,2.97
2022-10-24T05:10:47.364Z,3.03
2022-10-24T05:13:13.919Z,2.95
2022-10-24T05:15:40.381Z,3.53
2022-10-24T05:18:07.108Z,2.72
2022-10-24T05:20:33.651Z,3.45
2022-10-24T05:23:00.166Z,3.55
2022-10-24T05:25:26.801Z,3.58
2022-10-24T05:27:53.253Z,3.03
2022-10-24T05:30:19.845Z,3.33
2022-10-24T05:32:47.082Z,3.50
2022-10-24T05:35:13.966Z,4.13
2022-10-24T05:37:40.934Z,3.65
2022-10-24T05:40:09.235Z,2.78
2022-10-24T05:42:36.237Z,3.25
2022-10-24T05:45:02.806Z,2.78
2022-10-24T05:47:29.415Z,2.83
2022-10-24T05:49:55.909Z,3.08
2022-10-24T05:52:22.489Z,2.92
2022-10-24T05:55:02.539Z,3.28
2022-10-24T05:57:33.572Z,3.78
2022-10-24T06:00:00.671Z,3.28
2022-10-24T06:02:27.285Z,4.60
2022-10-24T06:04:55.388Z,6.80
2022-10-24T06:07:21.880Z,4.57
2022-10-24T06:09:48.371Z,5.60
2022-10-24T06:12:14.905Z,4.25
2022-10-24T06:14:41.384Z,4.75
2022-10-24T06:17:09.199Z,4.13
2022-10-24T06:19:36.846Z,3.42
2022-10-24T06:22:04.638Z,5.03
2022-10-24T06:24:31.383Z,2.90
2022-10-24T06:26:57.829Z,3.50
2022-10-24T06:29:24.281Z,4.15
2022-10-24T06:31:50.764Z,3.25
2022-10-24T06:34:17.280Z,3.30
2022-10-24T06:36:43.807Z,3.53
2022-10-24T06:39:10.259Z,3.63
2022-10-24T06:41:36.846Z,3.85
2022-10-24T06:44:06.629Z,4.00
2022-10-24T06:46:36.791Z,3.40
2022-10-24T06:51:58.907Z,3.80
2022-10-24T06:54:27.849Z,3.50
2022-10-24T06:56:56.911Z,3.78
2022-10-24T06:59:24.117Z,2.97
2022-10-24T07:01:51.948Z,4.60
2022-10-24T07:04:18.897Z,3.50
2022-10-24T07:06:45.594Z,4.22
2022-10-24T07:09:15.232Z,3.03
2022-10-24T07:11:42.565Z,3.45
2022-10-24T07:14:09.777Z,3.55
2022-10-24T07:16:37.093Z,2.67
2022-10-24T07:19:04.425Z,3.05
2022-10-24T07:21:32.870Z,3.10
2022-10-24T07:23:59.909Z,3.05
2022-10-24T07:26:29.123Z,3.10
2022-10-24T07:31:30.294Z,3.03
2022-10-24T07:33:56.711Z,2.53
2022-10-24T07:36:25.432Z,2.30
2022-10-24T07:38:54.075Z,3.00
2022-10-24T07:41:21.118Z,3.33
2022-10-24T07:43:47.706Z,3.90
2022-10-24T07:46:16.509Z,2.83
2022-10-24T07:48:43.762Z,2.80
2022-10-24T07:51:13.626Z,4.15
2022-10-24T07:53:41.186Z,3.72
2022-10-24T07:56:10.464Z,3.53
2022-10-24T07:58:37.625Z,2.42
2022-10-24T08:01:10.524Z,2.72
2022-10-24T08:03:37.047Z,3.03
2022-10-24T08:06:08.827Z,3.55
2022-10-24T08:08:37.703Z,2.92
2022-10-24T08:11:16.321Z,2.72
2022-10-24T08:13:43.319Z,2.90
2022-10-24T08:16:12.637Z,2.88
2022-10-24T08:18:40.110Z,3.17
2022-10-24T08:21:12.612Z,3.28
2022-10-24T08:23:41.562Z,2.85
2022-10-24T08:26:09.330Z,2.38
2022-10-24T08:28:36.377Z,3.10
2022-10-24T08:31:08.765Z,2.85
2022-10-24T08:33:35.494Z,3.15
2022-10-24T08:36:05.915Z,3.08
2022-10-24T08:38:32.619Z,3.20
2022-10-24T08:41:00.141Z,2.78
2022-10-24T08:43:27.013Z,3.00
2022-10-24T08:46:20.171Z,2.63
2022-10-24T08:49:15.941Z,2.55
2022-10-24T08:51:48.317Z,2.72
2022-10-24T08:54:23.196Z,2.60
2022-10-24T08:56:54.856Z,2.97
2022-10-24T08:59:21.375Z,3.67
2022-10-24T09:01:52.326Z,4.70
2022-10-24T09:04:29.716Z,3.30
2022-10-24T09:06:57.358Z,2.70
2022-10-24T09:09:38.509Z,7.78
2022-10-24T09:12:14.030Z,3.83
2022-10-24T09:14:43.465Z,3.72
2022-10-24T09:17:25.778Z,3.28
2022-10-24T09:19:59.087Z,2.92
2022-10-24T09:22:30.109Z,3.15
2022-10-24T09:25:01.347Z,3.40
2022-10-24T09:27:31.933Z,2.55
2022-10-24T09:29:58.917Z,3.40
2022-10-24T09:32:30.510Z,3.10
2022-10-24T09:35:09.039Z,2.30
2022-10-24T09:37:47.355Z,2.70
2022-10-24T09:40:29.797Z,2.35
2022-10-24T09:42:58.874Z,2.55
2022-10-24T09:45:38.979Z,2.65
2022-10-24T09:48:17.451Z,2.63
2022-10-24T09:50:45.726Z,4.03
2022-10-24T09:53:31.943Z,4.57
2022-10-24T09:56:19.894Z,3.05
2022-10-24T09:58:46.930Z,3.42
2022-10-24T10:01:16.745Z,2.88
2022-10-24T10:03:44.222Z,2.85
2022-10-24T10:06:21.023Z,3.50
2022-10-24T10:08:54.228Z,3.13
2022-10-24T10:11:31.669Z,3.15
2022-10-24T10:14:02.040Z,2.90
2022-10-24T10:16:39.102Z,3.10
2022-10-24T10:19:16.970Z,2.05
2022-10-24T10:22:00.629Z,2.65
2022-10-24T10:24:40.679Z,3.20
2022-10-24T10:27:32.584Z,2.35
2022-10-24T10:30:17.302Z,2.63
2022-10-24T10:32:57.579Z,2.33
2022-10-24T10:35:38.116Z,2.70
2022-10-24T10:38:42.905Z,2.47
2022-10-24T10:41:43.920Z,2.63
2022-10-24T10:44:46.645Z,1.90
2022-10-24T10:47:39.320Z,2.08
2022-10-24T10:50:38.179Z,2.45
2022-10-24T10:53:36.197Z,2.15
2022-10-24T10:56:39.132Z,2.15
2022-10-24T10:59:32.561Z,2.10
2022-10-24T11:02:03.609Z,1.45
2022-10-24T11:04:58.495Z,2.67
2022-10-24T11:07:55.277Z,2.33
2022-10-24T11:10:35.691Z,1.88
2022-10-24T11:13:10.111Z,3.15
2022-10-24T11:15:44.220Z,2.35
2022-10-24T11:18:40.008Z,2.13
2022-10-24T11:21:09.382Z,2.00
2022-10-24T11:24:00.543Z,2.00
2022-10-24T11:27:05.356Z,2.13
2022-10-24T11:29:43.028Z,1.42
2022-10-24T11:32:58.745Z,2.33
2022-10-24T11:35:33.355Z,2.17
2022-10-24T11:38:11.317Z,1.70
2022-10-24T11:40:40.270Z,1.80
2022-10-24T11:43:21.818Z,2.40
2022-10-24T11:45:56.311Z,2.22
2022-10-24T11:48:30.467Z,1.60
2022-10-24T11:51:26.400Z,1.88
2022-10-24T11:54:10.393Z,1.33
2022-10-24T11:56:45.047Z,0.93
2022-10-24T11:59:28.060Z,1.83
2022-10-24T12:01:55.798Z,0.80
2022-10-24T12:04:57.497Z,0.98
2022-10-24T12:08:03.048Z,1.10
2022-10-24T12:11:12.617Z,1.20
2022-10-24T12:14:19.098Z,1.77
2022-10-24T12:17:27.944Z,1.30
2022-10-24T12:19:56.059Z,1.35
2022-10-24T12:22:34.596Z,1.02
2022-10-24T12:25:06.557Z,0.90
2022-10-24T12:27:38.903Z,0.93
2022-10-24T12:30:17.092Z,0.70
2022-10-24T12:32:57.804Z,1.15
2022-10-24T12:35:31.383Z,0.60
2022-10-24T12:37:58.484Z,1.20
2022-10-24T12:41:09.445Z,0.65
2022-10-24T12:43:40.179Z,0.82
2022-10-24T12:46:21.825Z,0.70
2022-10-24T12:48:58.891Z,0.73
2022-10-24T12:51:32.731Z,0.77
2022-10-24T12:54:02.231Z,0.60
2022-10-24T12:56:30.955Z,1.48
2022-10-24T12:59:17.115Z,0.73
2022-10-24T13:01:46.153Z,0.80
2022-10-24T13:04:50.545Z,0.60
2022-10-24T13:07:29.834Z,0.70
2022-10-24T13:10:14.743Z,0.73
2022-10-24T13:13:20.238Z,0.90
2022-10-24T13:15:55.080Z,0.82
2022-10-24T13:18:21.490Z,1.15
2022-10-24T13:20:52.418Z,0.70
2022-10-24T13:23:26.701Z,0.95
2022-10-24T13:25:58.641Z,0.50
2022-10-24T13:28:25.027Z,0.68
2022-10-24T13:38:03.797Z,0.60
2022-10-24T13:40:33.950Z,0.70
2022-10-24T13:43:07.456Z,0.60
2022-10-24T13:45:49.507Z,0.82
2022-10-24T13:48:27.156Z,0.88
2022-10-24T13:51:06.998Z,0.80
2022-10-24T13:53:47.641Z,0.80
2022-10-24T13:56:14.932Z,0.68
2022-10-24T13:58:44.646Z,0.75
2022-10-24T14:01:22.502Z,0.60
2022-10-24T14:03:50.371Z,0.65
2022-10-24T14:06:22.576Z,0.50
2022-10-24T14:09:10.251Z,0.85
2022-10-24T14:11:44.832Z,0.80
2022-10-24T14:14:29.266Z,1.10
2022-10-24T14:17:26.843Z,0.63
2022-10-24T14:19:59.386Z,0.93
2022-10-24T14:22:29.431Z,1.05
2022-10-24T14:24:56.500Z,0.60
2022-10-24T14:27:25.416Z,0.52
2022-10-24T14:29:55.529Z,0.60
2022-10-24T14:32:22.489Z,1.00
2022-10-24T14:35:15.100Z,0.82
2022-10-24T14:37:44.255Z,1.38
2022-10-24T14:40:20.110Z,0.88
2022-10-24T14:42:53.122Z,0.55
2022-10-24T14:45:29.229Z,1.02
2022-10-24T14:47:58.497Z,0.60
2022-10-24T14:50:44.693Z,1.25
2022-10-24T14:53:23.910Z,0.68
2022-10-24T14:55:55.714Z,0.77
2022-10-24T14:58:31.513Z,0.93
2022-10-24T15:01:01.370Z,0.93
2022-10-24T15:03:28.732Z,0.50
2022-10-24T15:06:08.198Z,0.60
2022-10-24T15:08:38.015Z,0.65
2022-10-24T15:11:31.086Z,0.60
2022-10-24T15:14:11.860Z,0.70
2022-10-24T15:16:39.558Z,1.17
2022-10-24T15:19:14.115Z,1.13
2022-10-24T15:21:44.187Z,0.80
2022-10-24T15:24:21.968Z,0.63
2022-10-24T15:26:48.683Z,1.23
2022-10-24T15:29:15.113Z,0.40
2022-10-24T15:31:44.790Z,0.50
2022-10-24T15:34:17.064Z,0.60
2022-10-24T15:36:45.047Z,0.70
2022-10-24T15:39:12.128Z,0.45
2022-10-24T15:41:39.410Z,0.80
2022-10-24T15:44:14.720Z,1.15
2022-10-24T15:46:41.208Z,0.60
2022-10-24T15:49:07.726Z,0.70
2022-10-24T15:51:34.326Z,0.65
2022-10-24T15:54:01.054Z,1.13
2022-10-24T15:56:27.576Z,0.80
2022-10-24T15:58:55.798Z,0.82
2022-10-24T16:01:27.708Z,0.60
2022-10-24T16:03:55.139Z,0.50
2022-10-24T16:06:22.060Z,0.68
2022-10-24T16:08:48.996Z,0.75
2022-10-24T16:11:15.694Z,0.93
2022-10-24T16:13:42.216Z,0.50
2022-10-24T16:16:08.858Z,0.40
2022-10-24T16:18:36.581Z,0.30
2022-10-24T16:21:05.029Z,1.15
2022-10-24T16:23:33.058Z,0.93
2022-10-24T16:25:59.845Z,0.28
2022-10-24T16:28:26.500Z,0.70
2022-10-24T16:30:57.924Z,0.90
2022-10-24T16:33:24.435Z,1.20
2022-10-24T16:35:51.687Z,1.17
2022-10-24T16:38:18.306Z,1.08
2022-10-24T16:40:47.078Z,0.50
2022-10-24T16:43:19.431Z,0.95
2022-10-24T16:45:55.551Z,1.17
2022-10-24T16:48:22.010Z,0.70
2022-10-24T16:50:48.440Z,0.50
2022-10-24T16:53:18.518Z,0.57
2022-10-24T16:55:49.791Z,0.90
2022-10-24T16:58:24.204Z,0.55
2022-10-24T17:01:02.925Z,1.13
2022-10-24T17:03:33.073Z,0.82
2022-10-24T17:05:59.738Z,1.85
2022-10-24T17:08:26.996Z,0.93
2022-10-24T17:10:57.508Z,0.65
2022-10-24T17:13:24.854Z,0.90
2022-10-24T17:15:51.619Z,0.70
2022-10-24T17:18:20.002Z,1.58
2022-10-24T17:20:47.099Z,0.80
2022-10-24T17:23:17.469Z,1.50
2022-10-24T17:25:45.919Z,0.85
2022-10-24T17:28:14.581Z,1.42
2022-10-24T17:30:41.253Z,1.23
2022-10-24T17:33:09.314Z,1.10
2022-10-24T17:35:38.539Z,1.00
2022-10-24T17:38:14.211Z,1.00
2022-10-24T17:40:48.975Z,1.40
2022-10-24T17:43:22.161Z,0.90
2022-10-24T17:45:49.722Z,1.15
2022-10-24T17:48:16.977Z,1.70
2022-10-24T17:50:43.571Z,2.25
2022-10-24T17:53:18.184Z,1.40
2022-10-24T17:55:47.556Z,1.48
2022-10-24T17:58:15.579Z,1.40
2022-10-24T18:00:46.449Z,1.10
2022-10-24T18:03:13.730Z,0.90
2022-10-24T18:05:40.408Z,1.05
2022-10-24T18:08:12.590Z,1.00
2022-10-24T18:10:40.216Z,1.55
2022-10-24T18:13:07.479Z,1.60
2022-10-24T18:15:35.853Z,2.80
2022-10-24T18:18:02.283Z,1.38
2022-10-24T18:20:30.109Z,1.33
2022-10-24T18:22:57.734Z,1.40
2022-10-24T18:25:24.307Z,1.17
2022-10-24T18:27:51.237Z,2.20
2022-10-24T18:30:19.471Z,1.08
2022-10-24T18:32:47.120Z,0.77
2022-10-24T18:35:15.308Z,1.30
2022-10-24T18:37:45.272Z,0.60
2022-10-24T18:40:12.475Z,0.80
2022-10-24T18:43:05.133Z,1.50
2022-10-24T18:45:32.643Z,0.82
2022-10-24T18:47:59.421Z,0.90
2022-10-24T18:50:29.158Z,1.58
2022-10-24T18:53:07.513Z,1.10
2022-10-24T18:55:36.517Z,1.63
2022-10-24T18:58:03.308Z,1.20
2022-10-24T19:00:32.339Z,1.52
2022-10-24T19:03:10.614Z,1.52
2022-10-24T19:05:51.893Z,1.45
2022-10-24T19:08:23.790Z,1.70
2022-10-24T19:10:55.967Z,2.08
2022-10-24T19:13:24.439Z,1.45
2022-10-24T19:16:00.529Z,1.40
2022-10-24T19:18:30.003Z,0.95
2022-10-24T19:20:56.472Z,1.58
2022-10-24T19:23:24.607Z,1.75
2022-10-24T19:25:51.430Z,1.50
2022-10-24T19:28:19.119Z,1.85
2022-10-24T19:30:46.772Z,1.15
2022-10-24T19:33:14.550Z,1.58
2022-10-24T19:35:46.749Z,1.85
2022-10-24T19:38:17.505Z,1.40
2022-10-24T19:40:49.492Z,1.52
2022-10-24T19:43:15.918Z,2.05
2022-10-24T19:45:50.253Z,1.40
2022-10-24T19:48:23.715Z,1.70
2022-10-24T19:50:50.541Z,1.17
2022-10-24T19:53:18.101Z,1.48
2022-10-24T19:55:44.921Z,1.55
2022-10-24T19:58:14.470Z,1.23
2022-10-24T20:00:44.495Z,1.58
2022-10-24T20:03:11.543Z,1.38
2022-10-24T20:05:42.277Z,1.10
2022-10-24T20:08:08.777Z,1.42
2022-10-24T20:10:35.224Z,1.38
2022-10-24T20:13:01.632Z,1.30
2022-10-24T20:15:31.410Z,2.85
2022-10-24T20:17:57.893Z,1.60
2022-10-24T20:20:24.993Z,1.20
2022-10-24T20:22:51.603Z,1.30
2022-10-24T20:25:17.994Z,1.00
2022-10-24T20:27:44.608Z,1.35
2022-10-24T20:30:19.553Z,1.13
2022-10-24T20:32:46.194Z,1.00
2022-10-24T20:35:12.687Z,1.10
2022-10-24T20:37:39.149Z,1.38
2022-10-24T20:40:06.086Z,1.80
2022-10-24T20:42:32.627Z,1.15
2022-10-24T20:44:59.034Z,1.27
2022-10-24T20:47:28.381Z,0.88
2022-10-24T20:49:54.872Z,1.48
2022-10-24T20:52:21.420Z,1.08
2022-10-24T20:54:47.877Z,0.98
2022-10-24T20:57:15.057Z,0.90
2022-10-24T20:59:41.725Z,1.50
2022-10-24T21:02:10.398Z,1.15
2022-10-24T21:04:36.859Z,1.13
2022-10-24T21:07:03.313Z,1.08
2022-10-24T21:09:29.851Z,1.05
2022-10-24T21:11:56.296Z,1.48
2022-10-24T21:14:22.713Z,0.98
2022-10-24T21:16:49.297Z,3.33
2022-10-24T21:19:15.747Z,2.15
2022-10-24T21:21:42.238Z,1.13
2022-10-24T21:24:14.380Z,1.48
2022-10-24T21:26:41.072Z,1.23
2022-10-24T21:29:15.020Z,1.27
2022-10-24T21:31:54.328Z,2.00
2022-10-24T21:34:20.756Z,1.40
2022-10-24T21:36:47.626Z,1.10
2022-10-24T21:39:15.798Z,0.98
2022-10-24T21:41:43.147Z,1.00
2022-10-24T21:44:10.160Z,1.00
2022-10-24T21:46:36.599Z,0.73
2022-10-24T21:49:03.199Z,1.35
2022-10-24T21:51:35.077Z,1.73
2022-10-24T21:54:18.637Z,1.08
2022-10-24T21:56:45.574Z,1.05
2022-10-24T21:59:14.771Z,1.08
